Time;durP1;ratioP1;P1;durP2;ratioP2;P2;SDS_P1;SDS_P2;PMS_P1;PMS_P2;Temp;Humidity;BMP_temperature;BMP_pressure;BME280_temperature;BME280_humidity;BME280_pressure;Samples;Min_cycle;Max_cycle;Signal;HPM_P1;HPM_P2
2021/06/30 00:02:17;;;;;;;9.27;8.40;;;;;;;;;;4992569;28;20397;-49
2021/06/30 00:04:43;;;;;;;10.40;9.27;;;;;;;;;;4992710;28;20830;-49
2021/06/30 00:07:09;;;;;;;12.47;10.30;;;;;;;;;;4992538;28;20407;-51
2021/06/30 00:09:35;;;;;;;10.83;9.73;;;;;;;;;;4992489;28;20428;-50
2021/06/30 00:12:02;;;;;;;11.93;10.73;;;;;;;;;;4992360;28;20383;-49
2021/06/30 00:14:28;;;;;;;11.30;10.27;;;;;;;;;;4992128;28;20412;-49
2021/06/30 00:16:54;;;;;;;13.50;12.10;;;;;;;;;;4992244;28;20491;-50
2021/06/30 00:19:20;;;;;;;14.63;11.80;;;;;;;;;;4991095;28;20468;-49
2021/06/30 00:21:46;;;;;;;14.17;12.70;;;;;;;;;;4992095;28;20950;-52
2021/06/30 00:24:13;;;;;;;19.53;13.60;;;;;;;;;;4992089;28;20409;-50
2021/06/30 00:26:39;;;;;;;13.43;12.07;;;;;;;;;;4992255;28;20392;-50
2021/06/30 00:29:06;;;;;;;16.50;14.00;;;;;;;;;;4991718;28;20903;-49
2021/06/30 00:31:32;;;;;;;15.00;13.40;;;;;;;;;;4991868;28;20390;-49
2021/06/30 00:34:02;;;;;;;23.50;13.60;;;;;;;;;;4991995;28;20755;-49
2021/06/30 00:36:30;;;;;;;17.70;15.43;;;;;;;;;;4992145;28;20430;-49
2021/06/30 00:38:56;;;;;;;19.20;13.90;;;;;;;;;;4992069;28;20805;-49
2021/06/30 00:41:22;;;;;;;22.17;16.07;;;;;;;;;;4991661;28;20379;-50
2021/06/30 00:43:47;;;;;;;19.03;15.03;;;;;;;;;;4991537;28;20387;-49
2021/06/30 00:46:13;;;;;;;18.80;14.93;;;;;;;;;;4991718;28;20422;-51
2021/06/30 00:48:40;;;;;;;20.50;16.10;;;;;;;;;;4991568;28;20427;-50
2021/06/30 00:51:06;;;;;;;25.40;16.47;;;;;;;;;;4991601;28;20466;-51
2021/06/30 00:53:32;;;;;;;20.50;17.97;;;;;;;;;;4991750;28;20487;-49
2021/06/30 00:55:58;;;;;;;22.63;16.50;;;;;;;;;;4991767;28;20378;-49
2021/06/30 00:58:24;;;;;;;18.73;15.80;;;;;;;;;;4991805;28;20391;-49
2021/06/30 01:00:50;;;;;;;20.07;17.07;;;;;;;;;;4990805;28;20398;-50
2021/06/30 01:03:16;;;;;;;17.60;14.77;;;;;;;;;;4991156;28;20794;-51
2021/06/30 01:05:42;;;;;;;33.43;15.90;;;;;;;;;;4990851;28;20386;-50
2021/06/30 01:08:09;;;;;;;21.80;16.17;;;;;;;;;;4990822;28;20407;-50
2021/06/30 01:10:35;;;;;;;17.43;13.30;;;;;;;;;;4990956;28;20622;-49
2021/06/30 01:13:05;;;;;;;22.37;13.90;;;;;;;;;;4991476;28;20401;-49
2021/06/30 01:15:31;;;;;;;15.53;13.20;;;;;;;;;;4991359;28;20412;-49
2021/06/30 01:17:57;;;;;;;18.70;14.03;;;;;;;;;;4991494;28;20431;-49
2021/06/30 01:20:22;;;;;;;19.67;14.00;;;;;;;;;;4991032;28;20417;-50
2021/06/30 01:23:02;;;;;;;22.23;15.57;;;;;;;;;;4991543;28;20379;-49
2021/06/30 01:25:28;;;;;;;18.10;16.17;;;;;;;;;;4991365;28;20411;-50
2021/06/30 01:27:54;;;;;;;19.70;15.57;;;;;;;;;;4991294;28;20406;-50
2021/06/30 01:30:20;;;;;;;20.53;15.37;;;;;;;;;;4991182;28;20457;-49
2021/06/30 01:32:46;;;;;;;15.40;13.77;;;;;;;;;;4991346;28;20479;-50
2021/06/30 01:35:19;;;;;;;20.83;15.67;;;;;;;;;;4991292;28;20379;-50
2021/06/30 01:37:46;;;;;;;19.17;16.47;;;;;;;;;;4991485;28;20450;-50
2021/06/30 01:40:12;;;;;;;18.07;13.70;;;;;;;;;;4991214;28;20380;-50
2021/06/30 01:42:38;;;;;;;20.93;14.93;;;;;;;;;;4991271;28;20410;-50
2021/06/30 01:45:05;;;;;;;16.57;14.70;;;;;;;;;;4991063;28;20418;-51
2021/06/30 01:47:31;;;;;;;19.30;15.43;;;;;;;;;;4991151;28;20446;-50
2021/06/30 01:49:56;;;;;;;19.30;16.17;;;;;;;;;;4991212;28;20501;-49
2021/06/30 01:52:28;;;;;;;24.73;15.27;;;;;;;;;;4990692;28;20400;-51
2021/06/30 01:54:54;;;;;;;19.30;16.00;;;;;;;;;;4991295;28;20379;-52
2021/06/30 01:57:20;;;;;;;22.37;16.30;;;;;;;;;;4993798;28;20542;-51
2021/06/30 01:59:46;;;;;;;22.50;17.13;;;;;;;;;;4994841;28;20400;-49
2021/06/30 02:02:12;;;;;;;18.37;16.03;;;;;;;;;;4994927;28;20414;-49
2021/06/30 02:04:39;;;;;;;24.40;15.63;;;;;;;;;;4994777;28;20490;-50
2021/06/30 02:07:06;;;;;;;20.67;15.80;;;;;;;;;;4994623;28;20890;-49
2021/06/30 02:09:32;;;;;;;19.53;15.40;;;;;;;;;;4994676;28;20487;-49
2021/06/30 02:11:58;;;;;;;18.80;15.63;;;;;;;;;;4994496;28;20396;-50
2021/06/30 02:14:24;;;;;;;20.83;16.30;;;;;;;;;;4994760;28;20486;-49
2021/06/30 02:16:50;;;;;;;19.30;16.57;;;;;;;;;;4994433;28;20414;-50
2021/06/30 02:19:16;;;;;;;17.47;15.00;;;;;;;;;;4994555;28;20390;-50
2021/06/30 02:21:42;;;;;;;19.80;14.57;;;;;;;;;;4994243;28;20399;-49
2021/06/30 02:24:08;;;;;;;16.30;14.67;;;;;;;;;;4994912;28;20428;-50
2021/06/30 02:26:35;;;;;;;18.93;15.93;;;;;;;;;;4994318;28;20946;-50
2021/06/30 02:29:01;;;;;;;22.13;16.40;;;;;;;;;;4994359;28;20498;-50
2021/06/30 02:31:27;;;;;;;19.10;16.10;;;;;;;;;;4994135;28;20427;-50
2021/06/30 02:33:53;;;;;;;20.00;16.83;;;;;;;;;;4994162;28;20835;-49
2021/06/30 02:36:19;;;;;;;20.63;16.10;;;;;;;;;;4994276;28;20483;-51
2021/06/30 02:38:45;;;;;;;21.33;16.90;;;;;;;;;;4993841;28;20917;-49
2021/06/30 02:41:11;;;;;;;20.20;16.90;;;;;;;;;;4993955;28;20428;-50
2021/06/30 02:43:37;;;;;;;24.17;17.30;;;;;;;;;;4994105;28;20972;-51
2021/06/30 02:46:04;;;;;;;19.57;15.87;;;;;;;;;;4994174;28;20431;-50
2021/06/30 02:48:30;;;;;;;21.27;17.73;;;;;;;;;;4993781;28;20546;-51
2021/06/30 02:50:56;;;;;;;22.87;17.97;;;;;;;;;;4993642;28;20991;-50
2021/06/30 02:53:22;;;;;;;20.13;16.90;;;;;;;;;;4993795;28;20407;-49
2021/06/30 02:55:48;;;;;;;22.33;18.67;;;;;;;;;;4993876;28;20375;-50
2021/06/30 02:58:14;;;;;;;22.07;16.87;;;;;;;;;;4993699;28;20513;-49
2021/06/30 03:00:40;;;;;;;23.33;16.60;;;;;;;;;;4993575;28;20851;-50
2021/06/30 03:03:06;;;;;;;21.83;17.83;;;;;;;;;;4993550;28;20732;-51
2021/06/30 03:05:32;;;;;;;26.37;16.77;;;;;;;;;;4993815;28;20745;-51
2021/06/30 03:07:58;;;;;;;21.67;16.90;;;;;;;;;;4993373;28;20474;-50
2021/06/30 03:10:24;;;;;;;23.63;16.70;;;;;;;;;;4993357;28;20464;-50
2021/06/30 03:12:50;;;;;;;19.47;16.03;;;;;;;;;;4993557;28;20874;-51
2021/06/30 03:15:16;;;;;;;21.50;16.40;;;;;;;;;;4993331;28;20447;-51
2021/06/30 03:17:43;;;;;;;20.40;16.33;;;;;;;;;;4993409;28;20451;-50
2021/06/30 03:20:10;;;;;;;24.80;17.73;;;;;;;;;;4993586;28;20463;-49
2021/06/30 03:22:37;;;;;;;24.77;16.43;;;;;;;;;;4993467;28;20393;-50
2021/06/30 03:25:04;;;;;;;24.13;17.90;;;;;;;;;;4993383;28;20403;-50
2021/06/30 03:27:29;;;;;;;23.83;16.30;;;;;;;;;;4993350;28;20435;-49
2021/06/30 03:29:55;;;;;;;25.47;18.13;;;;;;;;;;4993099;28;20459;-49
2021/06/30 03:32:21;;;;;;;22.27;17.50;;;;;;;;;;4992966;28;20370;-49
2021/06/30 03:34:47;;;;;;;22.60;16.93;;;;;;;;;;4993299;28;20491;-49
2021/06/30 03:37:13;;;;;;;21.63;17.30;;;;;;;;;;4993073;28;20419;-51
2021/06/30 03:39:39;;;;;;;26.33;18.20;;;;;;;;;;4993017;28;20411;-49
2021/06/30 03:42:05;;;;;;;27.43;17.87;;;;;;;;;;4993024;28;20404;-51
2021/06/30 03:44:31;;;;;;;22.87;16.17;;;;;;;;;;4993095;28;20742;-51
2021/06/30 03:46:57;;;;;;;24.53;16.47;;;;;;;;;;4993191;28;20386;-50
2021/06/30 03:49:24;;;;;;;20.53;16.27;;;;;;;;;;4992995;28;20390;-51
2021/06/30 03:51:50;;;;;;;24.60;17.57;;;;;;;;;;4993110;28;20400;-50
2021/06/30 03:54:16;;;;;;;24.30;16.20;;;;;;;;;;4993122;28;20430;-49
2021/06/30 03:56:42;;;;;;;21.27;15.63;;;;;;;;;;4992836;28;20436;-50
2021/06/30 03:59:08;;;;;;;17.80;15.33;;;;;;;;;;4992931;28;20371;-50
2021/06/30 04:01:34;;;;;;;25.00;17.17;;;;;;;;;;4992346;28;20386;-50
2021/06/30 04:04:02;;;;;;;20.90;16.40;;;;;;;;;;4992899;28;20865;-49
2021/06/30 04:06:28;;;;;;;22.90;16.10;;;;;;;;;;4992751;28;20447;-49
2021/06/30 04:08:55;;;;;;;21.17;14.87;;;;;;;;;;4992746;28;20419;-50
2021/06/30 04:11:21;;;;;;;19.20;14.37;;;;;;;;;;4992485;28;20782;-49
2021/06/30 04:13:47;;;;;;;21.00;15.37;;;;;;;;;;4992461;28;20457;-50
2021/06/30 04:16:13;;;;;;;18.30;14.27;;;;;;;;;;4992170;28;20408;-50
2021/06/30 04:18:39;;;;;;;18.30;14.97;;;;;;;;;;4992053;28;20418;-50
2021/06/30 04:21:05;;;;;;;20.70;14.80;;;;;;;;;;4992084;28;20414;-50
2021/06/30 04:23:34;;;;;;;17.53;14.07;;;;;;;;;;4992442;28;20437;-50
2021/06/30 04:26:00;;;;;;;18.10;13.50;;;;;;;;;;4992273;28;20412;-51
2021/06/30 04:28:26;;;;;;;16.00;13.03;;;;;;;;;;4992045;28;20922;-49
2021/06/30 04:30:52;;;;;;;18.10;13.50;;;;;;;;;;4991710;28;20503;-49
2021/06/30 04:33:18;;;;;;;16.03;13.23;;;;;;;;;;4992191;28;20758;-49
2021/06/30 04:35:44;;;;;;;21.57;15.57;;;;;;;;;;4992016;28;20396;-50
2021/06/30 04:38:10;;;;;;;22.60;14.37;;;;;;;;;;4992021;28;20807;-49
2021/06/30 04:40:36;;;;;;;16.67;13.50;;;;;;;;;;4992071;28;20754;-49
2021/06/30 04:43:01;;;;;;;17.60;14.27;;;;;;;;;;4991822;28;20782;-49
2021/06/30 04:45:27;;;;;;;19.60;13.70;;;;;;;;;;4992027;28;20954;-50
2021/06/30 04:47:53;;;;;;;19.80;13.37;;;;;;;;;;4991839;28;20398;-51
2021/06/30 04:50:19;;;;;;;16.00;13.50;;;;;;;;;;4991580;28;20824;-52
2021/06/30 04:52:45;;;;;;;17.83;13.57;;;;;;;;;;4991657;28;20872;-49
2021/06/30 04:55:11;;;;;;;23.80;14.10;;;;;;;;;;4991796;28;20380;-49
2021/06/30 04:57:38;;;;;;;21.13;14.87;;;;;;;;;;4991944;28;20429;-50
2021/06/30 05:00:07;;;;;;;17.43;13.00;;;;;;;;;;4991938;28;20399;-49
2021/06/30 05:02:33;;;;;;;19.97;14.80;;;;;;;;;;4991251;28;20387;-51
2021/06/30 05:04:59;;;;;;;17.13;13.43;;;;;;;;;;4991665;28;20436;-51
2021/06/30 05:07:25;;;;;;;21.60;14.67;;;;;;;;;;4991339;28;20399;-50
2021/06/30 05:09:51;;;;;;;14.93;13.33;;;;;;;;;;4991480;28;20836;-50
2021/06/30 05:12:17;;;;;;;19.87;15.57;;;;;;;;;;4990972;28;20483;-51
2021/06/30 05:14:44;;;;;;;18.43;14.40;;;;;;;;;;4991541;28;20395;-51
2021/06/30 05:17:10;;;;;;;17.30;14.53;;;;;;;;;;4991280;28;20400;-50
2021/06/30 05:19:36;;;;;;;16.07;13.83;;;;;;;;;;4991087;28;20422;-52
2021/06/30 05:22:02;;;;;;;19.07;14.30;;;;;;;;;;4990432;28;20387;-50
2021/06/30 05:24:28;;;;;;;17.63;15.50;;;;;;;;;;4991412;28;20375;-49
2021/06/30 05:26:54;;;;;;;20.37;16.33;;;;;;;;;;4989792;28;20421;-50
2021/06/30 05:29:20;;;;;;;20.97;16.00;;;;;;;;;;4991204;28;20391;-51
2021/06/30 05:31:46;;;;;;;21.40;16.03;;;;;;;;;;4993121;28;20416;-52
2021/06/30 05:34:12;;;;;;;18.90;15.57;;;;;;;;;;4995404;28;20466;-51
2021/06/30 05:36:38;;;;;;;19.13;15.77;;;;;;;;;;4995416;28;20687;-50
2021/06/30 05:39:04;;;;;;;18.70;15.23;;;;;;;;;;5020852;23;20495;-56
2021/06/30 05:41:30;;;;;;;20.90;15.67;;;;;;;;;;4995286;28;20463;-56
2021/06/30 05:43:56;;;;;;;18.00;15.10;;;;;;;;;;4995168;28;20484;-56
2021/06/30 05:46:22;;;;;;;17.27;15.37;;;;;;;;;;4995338;28;20387;-56
2021/06/30 05:48:48;;;;;;;17.60;14.27;;;;;;;;;;4995073;28;20447;-56
2021/06/30 05:51:14;;;;;;;13.37;12.07;;;;;;;;;;4995105;28;20451;-56
2021/06/30 05:53:40;;;;;;;18.90;12.87;;;;;;;;;;4995165;28;20876;-56
2021/06/30 05:56:06;;;;;;;9.00;8.10;;;;;;;;;;4995128;28;20374;-56
2021/06/30 05:58:32;;;;;;;9.73;7.50;;;;;;;;;;4994837;28;20479;-56
2021/06/30 06:00:58;;;;;;;12.80;7.63;;;;;;;;;;4994990;28;20423;-56
2021/06/30 06:03:24;;;;;;;6.77;6.13;;;;;;;;;;4994887;28;20491;-56
2021/06/30 06:05:50;;;;;;;7.30;6.20;;;;;;;;;;4995032;28;20401;-56
2021/06/30 06:08:16;;;;;;;8.23;7.13;;;;;;;;;;4994671;28;20430;-56
2021/06/30 06:10:42;;;;;;;6.27;5.53;;;;;;;;;;4994640;28;20460;-56
2021/06/30 06:13:08;;;;;;;5.73;5.23;;;;;;;;;;4994894;28;20402;-56
2021/06/30 06:15:35;;;;;;;5.40;4.90;;;;;;;;;;4994578;28;20410;-56
2021/06/30 06:18:01;;;;;;;5.73;3.60;;;;;;;;;;4994689;28;20733;-56
2021/06/30 06:20:27;;;;;;;4.57;4.17;;;;;;;;;;4994385;28;20444;-56
2021/06/30 06:22:53;;;;;;;3.43;3.10;;;;;;;;;;4994620;28;20844;-56
2021/06/30 06:25:19;;;;;;;3.30;3.10;;;;;;;;;;4994354;28;20414;-56
2021/06/30 06:27:45;;;;;;;3.97;3.67;;;;;;;;;;4994266;28;20478;-56
2021/06/30 06:30:11;;;;;;;3.13;2.93;;;;;;;;;;4994300;28;20695;-56
2021/06/30 06:32:37;;;;;;;4.43;3.97;;;;;;;;;;4994255;28;20374;-56
2021/06/30 06:35:05;;;;;;;6.60;4.17;;;;;;;;;;4994200;28;20411;-56
2021/06/30 06:37:31;;;;;;;6.23;3.40;;;;;;;;;;4994293;28;20905;-56
2021/06/30 06:39:57;;;;;;;3.97;3.70;;;;;;;;;;4993923;28;20419;-56
2021/06/30 06:42:23;;;;;;;4.60;4.20;;;;;;;;;;4993582;28;20411;-56
2021/06/30 06:44:49;;;;;;;5.83;4.13;;;;;;;;;;4994044;28;20419;-56
2021/06/30 06:47:15;;;;;;;3.47;3.13;;;;;;;;;;4994149;28;20873;-56
2021/06/30 06:49:42;;;;;;;4.40;3.80;;;;;;;;;;4993934;28;20440;-56
2021/06/30 06:52:08;;;;;;;4.00;3.70;;;;;;;;;;4993719;28;20381;-56
2021/06/30 06:54:34;;;;;;;3.80;3.50;;;;;;;;;;4993812;28;20381;-56
2021/06/30 06:57:00;;;;;;;4.50;4.10;;;;;;;;;;4994006;28;20462;-56
2021/06/30 06:59:26;;;;;;;4.57;4.17;;;;;;;;;;4993399;28;20950;-57
2021/06/30 07:01:52;;;;;;;5.17;4.70;;;;;;;;;;4993416;28;20439;-56
2021/06/30 07:04:17;;;;;;;7.13;4.60;;;;;;;;;;4993811;28;20381;-56
2021/06/30 07:06:43;;;;;;;7.87;5.63;;;;;;;;;;4993541;28;20409;-56
2021/06/30 07:09:09;;;;;;;5.13;4.70;;;;;;;;;;4992161;28;20494;-56
2021/06/30 07:11:35;;;;;;;6.30;5.33;;;;;;;;;;4993294;28;20483;-56
2021/06/30 07:14:02;;;;;;;7.10;5.67;;;;;;;;;;4993699;28;20411;-56
2021/06/30 07:16:28;;;;;;;6.10;5.60;;;;;;;;;;4993526;28;20399;-56
2021/06/30 07:18:54;;;;;;;6.10;5.60;;;;;;;;;;4993513;28;20807;-56
2021/06/30 07:21:20;;;;;;;5.50;4.63;;;;;;;;;;4993140;28;20391;-56
2021/06/30 07:23:46;;;;;;;5.57;5.17;;;;;;;;;;4993413;28;20465;-56
2021/06/30 07:26:12;;;;;;;5.40;4.90;;;;;;;;;;4993344;28;20903;-56
2021/06/30 07:28:39;;;;;;;4.73;4.43;;;;;;;;;;4993360;28;20444;-56
2021/06/30 07:31:06;;;;;;;4.57;4.37;;;;;;;;;;4992940;28;20456;-56
2021/06/30 07:33:32;;;;;;;6.67;6.17;;;;;;;;;;4993362;28;20415;-57
2021/06/30 07:35:58;;;;;;;4.90;4.60;;;;;;;;;;4993349;28;20448;-56
2021/06/30 07:38:25;;;;;;;5.70;5.30;;;;;;;;;;4992877;28;21172;-56
2021/06/30 07:40:51;;;;;;;6.53;5.93;;;;;;;;;;4992941;28;20446;-56
2021/06/30 07:43:17;;;;;;;5.33;4.83;;;;;;;;;;4993057;28;20451;-56
2021/06/30 07:45:43;;;;;;;5.23;4.83;;;;;;;;;;4993136;28;20413;-57
2021/06/30 07:48:09;;;;;;;5.30;4.80;;;;;;;;;;4992879;28;20410;-56
2021/06/30 07:50:35;;;;;;;6.23;5.83;;;;;;;;;;4992703;28;20829;-56
2021/06/30 07:53:01;;;;;;;6.03;5.60;;;;;;;;;;4992518;28;20464;-56
2021/06/30 07:55:27;;;;;;;5.07;4.67;;;;;;;;;;4992528;28;20403;-56
2021/06/30 07:57:53;;;;;;;4.90;4.60;;;;;;;;;;4992631;28;20430;-57
2021/06/30 08:00:19;;;;;;;5.00;4.70;;;;;;;;;;4992619;28;20779;-57
2021/06/30 08:02:45;;;;;;;6.70;6.20;;;;;;;;;;4992572;28;20492;-57
2021/06/30 08:05:12;;;;;;;5.20;4.90;;;;;;;;;;4991546;28;20433;-57
2021/06/30 08:07:38;;;;;;;5.50;5.20;;;;;;;;;;4991968;28;20418;-56
2021/06/30 08:10:06;;;;;;;6.97;6.37;;;;;;;;;;4992625;28;20498;-56
2021/06/30 08:12:32;;;;;;;7.87;4.70;;;;;;;;;;4992186;28;20759;-56
2021/06/30 08:14:58;;;;;;;6.40;5.83;;;;;;;;;;4991374;28;20474;-56
2021/06/30 08:17:24;;;;;;;4.57;3.97;;;;;;;;;;4992337;28;20412;-56
2021/06/30 08:19:50;;;;;;;4.37;4.07;;;;;;;;;;4992501;28;20470;-56
2021/06/30 08:22:16;;;;;;;5.13;4.70;;;;;;;;;;4992127;28;20474;-56
2021/06/30 08:24:43;;;;;;;5.37;5.00;;;;;;;;;;4992176;28;20415;-56
2021/06/30 08:27:10;;;;;;;6.63;5.27;;;;;;;;;;4992580;28;20403;-56
2021/06/30 08:29:36;;;;;;;5.03;4.20;;;;;;;;;;4990793;28;20452;-57
2021/06/30 08:32:02;;;;;;;5.30;4.90;;;;;;;;;;4992081;28;20396;-56
2021/06/30 08:34:28;;;;;;;5.60;5.20;;;;;;;;;;4992239;28;20399;-56
2021/06/30 08:37:00;;;;;;;5.07;4.67;;;;;;;;;;4992238;28;20473;-57
2021/06/30 08:39:27;;;;;;;3.80;3.60;;;;;;;;;;4991952;28;21030;-57
2021/06/30 08:41:53;;;;;;;3.30;2.87;;;;;;;;;;4991923;28;20396;-58
2021/06/30 08:44:20;;;;;;;3.57;3.13;;;;;;;;;;4991902;28;20436;-57
2021/06/30 08:46:46;;;;;;;3.80;2.90;;;;;;;;;;4992028;28;20404;-58
2021/06/30 08:49:13;;;;;;;2.73;2.40;;;;;;;;;;4991725;28;20420;-58
2021/06/30 08:51:40;;;;;;;2.60;2.40;;;;;;;;;;4991521;28;20959;-57
2021/06/30 08:54:11;;;;;;;2.50;2.40;;;;;;;;;;4991756;28;20400;-56
2021/06/30 08:56:37;;;;;;;3.40;3.17;;;;;;;;;;4991829;28;20406;-56
2021/06/30 08:59:03;;;;;;;3.10;2.90;;;;;;;;;;4991719;28;20420;-56
2021/06/30 09:01:30;;;;;;;3.60;3.20;;;;;;;;;;4991294;28;20416;-56
2021/06/30 09:03:56;;;;;;;3.30;3.20;;;;;;;;;;4991686;28;20408;-56
2021/06/30 09:06:26;;;;;;;2.90;2.70;;;;;;;;;;4991452;28;20422;-56
2021/06/30 09:08:52;;;;;;;3.13;2.93;;;;;;;;;;4991553;28;20957;-56
2021/06/30 09:11:22;;;;;;;3.53;3.23;;;;;;;;;;4991152;28;20461;-56
2021/06/30 09:13:51;;;;;;;6.13;3.60;;;;;;;;;;4991463;28;20561;-56
2021/06/30 09:16:18;;;;;;;3.93;3.73;;;;;;;;;;4991314;28;20411;-56
2021/06/30 09:18:48;;;;;;;3.23;3.13;;;;;;;;;;4991346;28;20523;-56
2021/06/30 09:21:18;;;;;;;3.30;3.10;;;;;;;;;;4991099;28;20414;-56
2021/06/30 09:24:02;;;;;;;3.70;3.50;;;;;;;;;;4991555;28;20568;-56
2021/06/30 09:26:30;;;;;;;4.77;4.50;;;;;;;;;;4990904;28;20902;-57
2021/06/30 09:29:03;;;;;;;5.97;3.57;;;;;;;;;;4991244;28;20571;-56
2021/06/30 09:31:29;;;;;;;4.33;3.50;;;;;;;;;;4990915;28;20469;-56
2021/06/30 09:33:56;;;;;;;5.60;3.80;;;;;;;;;;4991305;28;20760;-56
2021/06/30 09:36:23;;;;;;;3.70;3.50;;;;;;;;;;4991150;28;20404;-56
2021/06/30 09:38:49;;;;;;;6.20;3.73;;;;;;;;;;4991216;28;20494;-57
2021/06/30 09:41:34;;;;;;;3.73;3.50;;;;;;;;;;4990744;28;20414;-57
2021/06/30 09:44:02;;;;;;;3.77;3.57;;;;;;;;;;4990647;28;20411;-56
2021/06/30 09:46:28;;;;;;;4.70;2.73;;;;;;;;;;4996402;28;20511;-56
2021/06/30 09:48:55;;;;;;;2.87;2.67;;;;;;;;;;4991040;28;20440;-56
2021/06/30 09:51:21;;;;;;;5.83;2.70;;;;;;;;;;4990426;28;20494;-56
2021/06/30 09:53:47;;;;;;;5.33;2.73;;;;;;;;;;4991144;28;20760;-56
2021/06/30 09:56:36;;;;;;;2.90;2.60;;;;;;;;;;4991073;28;20871;-56
2021/06/30 09:59:15;;;;;;;2.20;2.10;;;;;;;;;;4991065;28;20860;-56
2021/06/30 10:01:42;;;;;;;2.97;2.77;;;;;;;;;;4991222;28;20421;-56
2021/06/30 10:04:11;;;;;;;2.23;2.13;;;;;;;;;;4990834;28;20407;-56
2021/06/30 10:06:38;;;;;;;2.60;2.50;;;;;;;;;;4989741;28;20400;-56
2021/06/30 10:09:05;;;;;;;7.27;2.53;;;;;;;;;;4990745;28;20437;-56
2021/06/30 10:11:33;;;;;;;3.83;2.50;;;;;;;;;;4990654;28;20456;-56
2021/06/30 10:13:59;;;;;;;2.70;2.60;;;;;;;;;;4990875;28;20404;-56
2021/06/30 10:16:26;;;;;;;3.90;2.60;;;;;;;;;;4990795;28;20934;-56
2021/06/30 10:18:53;;;;;;;2.77;2.63;;;;;;;;;;4994586;28;20431;-56
2021/06/30 10:21:20;;;;;;;3.10;2.90;;;;;;;;;;4994495;28;20408;-56
2021/06/30 10:23:46;;;;;;;2.27;2.17;;;;;;;;;;4994728;28;20945;-56
2021/06/30 10:26:14;;;;;;;2.80;2.40;;;;;;;;;;4994661;28;20803;-56
2021/06/30 10:28:40;;;;;;;4.53;2.57;;;;;;;;;;4994863;28;20428;-56
2021/06/30 10:31:06;;;;;;;2.50;2.13;;;;;;;;;;4994656;28;20455;-56
2021/06/30 10:33:37;;;;;;;3.93;3.63;;;;;;;;;;4994353;28;20796;-56
2021/06/30 10:36:03;;;;;;;2.00;1.90;;;;;;;;;;4994296;28;21003;-56
2021/06/30 10:38:49;;;;;;;3.63;1.90;;;;;;;;;;4994268;28;20935;-56
2021/06/30 10:41:34;;;;;;;2.10;2.00;;;;;;;;;;4993882;28;20400;-56
2021/06/30 10:44:12;;;;;;;2.50;2.30;;;;;;;;;;4994074;28;20515;-56
2021/06/30 10:46:38;;;;;;;3.87;2.10;;;;;;;;;;4994124;28;20797;-56
2021/06/30 10:49:27;;;;;;;1.90;1.80;;;;;;;;;;4993907;28;20430;-56
2021/06/30 10:51:57;;;;;;;1.90;1.80;;;;;;;;;;4990594;28;20435;-56
2021/06/30 10:54:32;;;;;;;2.13;1.70;;;;;;;;;;4993706;28;20435;-56
2021/06/30 10:57:25;;;;;;;2.03;1.80;;;;;;;;;;4993945;28;20399;-56
2021/06/30 11:00:04;;;;;;;1.70;1.60;;;;;;;;;;4992696;28;20419;-56
2021/06/30 11:02:32;;;;;;;1.80;1.70;;;;;;;;;;4993770;28;20408;-56
2021/06/30 11:05:17;;;;;;;4.03;1.87;;;;;;;;;;4992609;28;20482;-57
2021/06/30 11:07:45;;;;;;;1.90;1.80;;;;;;;;;;4993521;28;20403;-56
2021/06/30 11:10:20;;;;;;;1.80;1.70;;;;;;;;;;4993424;28;20546;-56
2021/06/30 11:12:49;;;;;;;3.23;1.57;;;;;;;;;;4993594;28;20434;-56
2021/06/30 11:15:34;;;;;;;1.63;1.53;;;;;;;;;;4993293;28;20403;-56
2021/06/30 11:18:00;;;;;;;2.83;1.70;;;;;;;;;;4993364;28;20418;-57
2021/06/30 11:20:44;;;;;;;2.03;1.90;;;;;;;;;;4993164;28;20404;-57
2021/06/30 11:23:19;;;;;;;2.03;1.93;;;;;;;;;;4992431;28;20500;-57
2021/06/30 11:25:45;;;;;;;2.10;1.90;;;;;;;;;;4993113;28;20974;-57
2021/06/30 11:28:30;;;;;;;4.70;2.83;;;;;;;;;;4991061;28;20431;-57
2021/06/30 11:30:57;;;;;;;3.40;3.20;;;;;;;;;;4992778;28;20455;-57
2021/06/30 11:33:23;;;;;;;3.53;1.80;;;;;;;;;;4993222;28;20408;-57
2021/06/30 11:35:49;;;;;;;2.30;2.10;;;;;;;;;;4992805;28;20403;-57
2021/06/30 11:38:17;;;;;;;2.70;2.00;;;;;;;;;;4992956;28;20478;-57
2021/06/30 11:40:54;;;;;;;3.83;1.97;;;;;;;;;;5004897;23;20514;-52
2021/06/30 11:43:24;;;;;;;1.60;1.50;;;;;;;;;;4993181;28;20427;-50
2021/06/30 11:45:54;;;;;;;1.97;1.87;;;;;;;;;;4991956;28;20919;-51
2021/06/30 11:48:20;;;;;;;1.57;1.47;;;;;;;;;;4992780;28;20395;-51
2021/06/30 11:50:48;;;;;;;2.57;1.70;;;;;;;;;;5006257;28;20494;-50
2021/06/30 11:53:14;;;;;;;1.53;1.43;;;;;;;;;;5012386;28;20418;-50
2021/06/30 11:55:41;;;;;;;2.00;1.87;;;;;;;;;;5012263;28;20465;-49
2021/06/30 11:58:08;;;;;;;2.77;1.67;;;;;;;;;;5012205;28;20882;-51
2021/06/30 12:00:39;;;;;;;2.80;1.80;;;;;;;;;;5012089;28;20427;-49
2021/06/30 12:03:05;;;;;;;1.80;1.70;;;;;;;;;;5012013;28;20779;-51
2021/06/30 12:05:35;;;;;;;2.27;1.70;;;;;;;;;;5012476;28;20918;-51
2021/06/30 12:08:03;;;;;;;1.73;1.63;;;;;;;;;;5012299;28;20755;-51
2021/06/30 12:10:30;;;;;;;1.70;1.60;;;;;;;;;;5012254;28;20528;-51
2021/06/30 12:12:56;;;;;;;4.23;1.93;;;;;;;;;;5012472;28;20407;-50
2021/06/30 12:15:22;;;;;;;2.50;1.70;;;;;;;;;;5011870;28;20820;-51
2021/06/30 12:17:50;;;;;;;1.83;1.43;;;;;;;;;;5012080;28;20415;-52
2021/06/30 12:20:16;;;;;;;2.00;1.90;;;;;;;;;;5011831;28;20447;-50
2021/06/30 12:22:43;;;;;;;2.27;2.17;;;;;;;;;;5011845;28;20402;-52
2021/06/30 12:25:23;;;;;;;1.70;1.60;;;;;;;;;;5011713;28;20909;-51
2021/06/30 12:27:51;;;;;;;1.90;1.80;;;;;;;;;;5011911;28;20406;-50
2021/06/30 12:30:21;;;;;;;2.37;2.10;;;;;;;;;;5011380;28;20810;-51
2021/06/30 12:32:50;;;;;;;1.73;1.63;;;;;;;;;;5011713;28;20435;-50
2021/06/30 12:35:21;;;;;;;2.83;2.63;;;;;;;;;;5011761;28;20399;-51
2021/06/30 12:38:14;;;;;;;2.10;2.00;;;;;;;;;;5011555;28;20434;-51
2021/06/30 12:40:41;;;;;;;2.30;2.10;;;;;;;;;;4981031;28;20466;-50
2021/06/30 12:43:17;;;;;;;2.80;2.03;;;;;;;;;;5011795;28;20407;-51
2021/06/30 12:45:44;;;;;;;2.10;2.00;;;;;;;;;;5011361;28;20780;-51
2021/06/30 12:48:13;;;;;;;2.23;2.13;;;;;;;;;;5011430;28;20427;-50
2021/06/30 12:50:40;;;;;;;2.87;2.57;;;;;;;;;;5010959;28;20953;-51
2021/06/30 12:53:07;;;;;;;2.10;1.90;;;;;;;;;;5010952;28;20418;-50
2021/06/30 12:55:52;;;;;;;2.50;2.40;;;;;;;;;;5011548;28;20415;-51
2021/06/30 12:58:18;;;;;;;3.10;2.40;;;;;;;;;;5011153;28;20776;-50
2021/06/30 13:01:00;;;;;;;2.70;2.50;;;;;;;;;;5010979;28;20932;-51
2021/06/30 13:03:27;;;;;;;2.23;2.13;;;;;;;;;;5011110;28;20941;-49
2021/06/30 13:05:53;;;;;;;2.23;2.10;;;;;;;;;;5011299;28;20406;-49
2021/06/30 13:08:28;;;;;;;3.13;1.63;;;;;;;;;;5011073;28;20399;-51
2021/06/30 13:11:07;;;;;;;2.43;2.17;;;;;;;;;;5010784;28;20466;-52
2021/06/30 13:13:33;;;;;;;2.30;2.20;;;;;;;;;;5010996;28;20398;-50
2021/06/30 13:16:14;;;;;;;5.83;2.30;;;;;;;;;;5011041;28;20406;-50
2021/06/30 13:18:45;;;;;;;2.90;2.63;;;;;;;;;;5010992;28;20435;-51
2021/06/30 13:21:11;;;;;;;1.80;1.70;;;;;;;;;;5010779;28;20430;-50
2021/06/30 13:23:45;;;;;;;2.10;1.90;;;;;;;;;;5010903;28;20411;-50
2021/06/30 13:26:25;;;;;;;2.70;2.53;;;;;;;;;;5010945;28;20540;-50
2021/06/30 13:34:25;;;;;;;2.77;2.57;;;;;;;;;;5010817;28;20399;-51
2021/06/30 13:36:58;;;;;;;3.93;2.97;;;;;;;;;;5008977;28;20442;-49
2021/06/30 13:39:24;;;;;;;4.33;3.00;;;;;;;;;;5010468;28;20466;-51
2021/06/30 13:41:51;;;;;;;4.30;2.33;;;;;;;;;;5010535;28;20399;-50
2021/06/30 13:44:26;;;;;;;2.27;2.17;;;;;;;;;;5010642;28;20383;-50
2021/06/30 13:46:53;;;;;;;2.10;2.00;;;;;;;;;;5010825;28;20949;-51
2021/06/30 13:49:19;;;;;;;2.43;2.33;;;;;;;;;;5010413;28;20441;-49
2021/06/30 13:51:46;;;;;;;1.83;1.73;;;;;;;;;;5010793;28;20550;-50
2021/06/30 13:54:12;;;;;;;2.90;2.70;;;;;;;;;;5014723;28;20399;-49
2021/06/30 13:56:38;;;;;;;4.53;4.23;;;;;;;;;;5014594;28;20403;-50
2021/06/30 13:59:04;;;;;;;7.50;6.80;;;;;;;;;;5014948;28;20452;-51
2021/06/30 14:01:30;;;;;;;8.00;7.27;;;;;;;;;;5014232;28;20417;-51
2021/06/30 14:04:02;;;;;;;7.20;6.70;;;;;;;;;;5014530;28;20760;-51
2021/06/30 14:06:28;;;;;;;8.03;7.43;;;;;;;;;;5014600;28;20434;-51
2021/06/30 14:08:54;;;;;;;6.73;6.23;;;;;;;;;;5014404;28;20406;-51
2021/06/30 14:11:20;;;;;;;6.93;6.33;;;;;;;;;;5014046;28;20446;-50
2021/06/30 14:13:46;;;;;;;9.93;9.00;;;;;;;;;;5014389;28;20762;-50
2021/06/30 14:16:12;;;;;;;15.83;14.23;;;;;;;;;;5014479;28;20414;-51
2021/06/30 14:18:38;;;;;;;9.50;8.60;;;;;;;;;;5014479;28;20414;-50
2021/06/30 14:21:04;;;;;;;8.40;7.63;;;;;;;;;;5014570;28;20470;-50
2021/06/30 14:23:30;;;;;;;6.97;6.40;;;;;;;;;;5014201;28;20416;-51
2021/06/30 14:26:00;;;;;;;7.07;6.43;;;;;;;;;;5014098;28;20399;-51
2021/06/30 14:28:26;;;;;;;6.17;5.67;;;;;;;;;;5013806;28;20799;-50
2021/06/30 14:30:52;;;;;;;6.83;5.30;;;;;;;;;;5013583;28;20808;-51
2021/06/30 14:33:19;;;;;;;5.93;4.50;;;;;;;;;;5013953;28;20402;-50
2021/06/30 14:35:45;;;;;;;5.53;5.03;;;;;;;;;;5013962;28;20406;-50
2021/06/30 14:38:11;;;;;;;4.60;4.30;;;;;;;;;;5013822;28;20905;-51
2021/06/30 14:40:37;;;;;;;4.93;4.47;;;;;;;;;;5013125;28;20922;-51
2021/06/30 14:43:03;;;;;;;5.87;5.37;;;;;;;;;;5013741;28;20412;-50